createdAt,value
2023-05-11T00:00:30.517Z,8.73
2023-05-11T00:02:57.728Z,8.98
2023-05-11T00:05:24.597Z,9.35
2023-05-11T00:07:51.397Z,8.88
2023-05-11T00:10:18.544Z,8.65
2023-05-11T00:12:45.580Z,9.32
2023-05-11T00:15:12.366Z,9.60
2023-05-11T00:17:39.215Z,9.68
2023-05-11T00:20:06.663Z,9.30
2023-05-11T00:22:33.458Z,8.55
2023-05-11T00:25:00.212Z,9.18
2023-05-11T00:27:27.005Z,8.48
2023-05-11T00:29:53.844Z,9.00
2023-05-11T00:32:20.857Z,8.77
2023-05-11T00:34:47.708Z,8.68
2023-05-11T00:37:14.619Z,8.90
2023-05-11T00:39:41.593Z,8.00
2023-05-11T00:42:08.376Z,7.57
2023-05-11T00:44:35.405Z,7.70
2023-05-11T00:47:02.431Z,7.80
2023-05-11T00:49:30.046Z,8.00
2023-05-11T00:51:57.870Z,8.38
2023-05-11T00:54:25.397Z,7.68
2023-05-11T00:56:52.227Z,6.93
2023-05-11T00:59:19.436Z,7.30
2023-05-11T01:01:46.499Z,6.40
2023-05-11T01:04:13.866Z,6.20
2023-05-11T01:07:04.437Z,6.75
2023-05-11T01:09:43.185Z,6.82
2023-05-11T01:12:34.682Z,6.88
2023-05-11T01:15:13.296Z,6.82
2023-05-11T01:18:09.407Z,6.78
2023-05-11T01:20:36.632Z,7.57
2023-05-11T01:23:28.311Z,7.25
2023-05-11T01:26:25.351Z,6.95
2023-05-11T01:28:54.937Z,7.35
2023-05-11T01:31:21.935Z,7.68
2023-05-11T01:34:09.773Z,7.30
2023-05-11T01:36:43.051Z,7.00
2023-05-11T01:39:13.089Z,7.30
2023-05-11T01:41:42.031Z,7.15
2023-05-11T01:44:11.981Z,7.32
2023-05-11T01:46:40.075Z,6.80
2023-05-11T01:49:07.671Z,6.88
2023-05-11T01:51:37.695Z,6.40
2023-05-11T01:54:08.154Z,6.75
2023-05-11T01:56:37.210Z,6.97
2023-05-11T01:59:05.057Z,6.60
2023-05-11T02:01:35.850Z,6.90
2023-05-11T02:04:05.032Z,6.60
2023-05-11T02:06:34.585Z,6.85
2023-05-11T02:09:03.336Z,6.45
2023-05-11T02:11:32.063Z,7.07
2023-05-11T02:13:59.874Z,6.13
2023-05-11T02:16:28.568Z,6.50
2023-05-11T02:18:57.913Z,6.25
2023-05-11T02:21:27.150Z,6.53
2023-05-11T02:23:55.048Z,6.25
2023-05-11T02:26:22.586Z,6.43
2023-05-11T02:28:49.656Z,6.40
2023-05-11T02:31:23.332Z,6.50
2023-05-11T02:33:52.626Z,5.82
2023-05-11T02:36:25.153Z,6.03
2023-05-11T02:38:59.001Z,5.88
2023-05-11T02:41:29.392Z,6.20
2023-05-11T02:43:59.442Z,6.30
2023-05-11T02:46:32.272Z,5.43
2023-05-11T02:49:02.681Z,6.47
2023-05-11T02:51:34.742Z,5.60
2023-05-11T02:54:02.955Z,5.82
2023-05-11T02:56:30.407Z,6.40
2023-05-11T02:58:57.325Z,5.65
2023-05-11T03:01:25.552Z,6.20
2023-05-11T03:03:53.509Z,5.57
2023-05-11T03:06:20.435Z,6.65
2023-05-11T03:08:47.885Z,5.85
2023-05-11T03:11:17.877Z,5.47
2023-05-11T03:13:45.678Z,5.38
2023-05-11T03:16:13.798Z,5.63
2023-05-11T03:18:41.213Z,5.65
2023-05-11T03:21:08.625Z,5.38
2023-05-11T03:23:36.770Z,4.80
2023-05-11T03:26:06.523Z,5.50
2023-05-11T03:28:34.535Z,5.63
2023-05-11T03:31:01.452Z,5.68
2023-05-11T03:33:28.451Z,5.93
2023-05-11T03:35:56.686Z,5.20
2023-05-11T03:38:24.973Z,5.50
2023-05-11T03:40:53.021Z,5.75
2023-05-11T03:43:21.923Z,5.35
2023-05-11T03:45:51.729Z,5.35
2023-05-11T03:48:19.232Z,5.25
2023-05-11T03:50:47.516Z,5.82
2023-05-11T03:53:15.707Z,6.07
2023-05-11T03:55:42.595Z,5.93
2023-05-11T03:58:10.031Z,5.28
2023-05-11T04:00:41.266Z,5.88
2023-05-11T04:03:11.699Z,5.47
2023-05-11T04:05:38.546Z,5.25
2023-05-11T04:08:06.407Z,4.93
2023-05-11T04:10:33.755Z,5.20
2023-05-11T04:13:00.566Z,5.05
2023-05-11T04:15:27.427Z,5.13
2023-05-11T04:17:54.436Z,5.10
2023-05-11T04:20:21.459Z,5.75
2023-05-11T04:22:48.269Z,5.05
2023-05-11T04:25:15.129Z,5.18
2023-05-11T04:27:41.951Z,6.00
2023-05-11T04:30:09.288Z,5.00
2023-05-11T04:32:36.185Z,5.45
2023-05-11T04:35:03.075Z,5.30
2023-05-11T04:37:29.961Z,5.10
2023-05-11T04:39:57.409Z,5.07
2023-05-11T04:42:24.309Z,5.50
2023-05-11T04:44:54.410Z,4.75
2023-05-11T04:47:21.551Z,4.90
2023-05-11T04:49:48.412Z,4.93
2023-05-11T04:52:15.298Z,4.72
2023-05-11T04:54:42.146Z,4.93
2023-05-11T04:57:08.952Z,4.38
2023-05-11T04:59:36.076Z,4.97
2023-05-11T05:02:02.923Z,5.00
2023-05-11T05:04:29.715Z,4.97
2023-05-11T05:06:56.545Z,4.70
2023-05-11T05:09:23.409Z,5.20
2023-05-11T05:11:50.194Z,5.15
2023-05-11T05:14:16.985Z,5.03
2023-05-11T05:16:43.825Z,4.78
2023-05-11T05:19:11.086Z,5.90
2023-05-11T05:21:38.235Z,4.22
2023-05-11T05:24:06.272Z,5.05
2023-05-11T05:26:33.077Z,5.03
2023-05-11T05:28:59.911Z,4.85
2023-05-11T05:31:26.812Z,5.13
2023-05-11T05:33:53.824Z,5.20
2023-05-11T05:36:20.641Z,4.50
2023-05-11T05:38:47.436Z,4.88
2023-05-11T05:41:14.299Z,4.72
2023-05-11T05:43:41.130Z,4.80
2023-05-11T05:46:08.045Z,4.50
2023-05-11T05:48:34.853Z,5.38
2023-05-11T05:51:01.877Z,5.18
2023-05-11T05:53:29.181Z,5.03
2023-05-11T05:55:56.103Z,4.90
2023-05-11T05:58:23.068Z,4.70
2023-05-11T06:00:49.888Z,5.47
2023-05-11T06:03:16.861Z,5.45
2023-05-11T06:05:43.695Z,4.90
2023-05-11T06:08:11.296Z,4.93
2023-05-11T06:10:38.835Z,5.28
2023-05-11T06:13:06.233Z,5.18
2023-05-11T06:15:33.592Z,5.47
2023-05-11T06:18:00.574Z,5.07
2023-05-11T06:20:27.418Z,5.05
2023-05-11T06:22:54.189Z,5.18
2023-05-11T06:25:20.981Z,5.22
2023-05-11T06:27:47.812Z,4.40
2023-05-11T06:30:14.732Z,4.80
2023-05-11T06:32:41.663Z,4.93
2023-05-11T06:35:08.834Z,5.03
2023-05-11T06:37:36.018Z,4.68
2023-05-11T06:40:03.302Z,5.65
2023-05-11T06:42:30.254Z,5.53
2023-05-11T06:44:57.173Z,5.35
2023-05-11T06:47:24.050Z,5.55
2023-05-11T06:49:50.818Z,5.55
2023-05-11T06:52:17.573Z,5.53
2023-05-11T06:54:44.556Z,5.07
2023-05-11T06:57:13.812Z,4.97
2023-05-11T06:59:41.267Z,5.68
2023-05-11T07:05:55.317Z,5.35
2023-05-11T07:08:38.655Z,6.78
2023-05-11T07:11:05.596Z,6.32
2023-05-11T07:13:32.551Z,5.97
2023-05-11T07:15:59.309Z,5.22
2023-05-11T07:18:26.090Z,5.18
2023-05-11T07:20:52.912Z,6.07
2023-05-11T07:23:19.832Z,5.47
2023-05-11T07:25:46.587Z,5.07
2023-05-11T07:28:13.375Z,5.50
2023-05-11T07:30:40.496Z,5.88
2023-05-11T07:33:07.386Z,5.78
2023-05-11T07:35:34.247Z,5.20
2023-05-11T07:38:01.067Z,5.53
2023-05-11T07:40:27.913Z,5.32
2023-05-11T07:42:54.768Z,5.65
2023-05-11T07:45:21.646Z,5.57
2023-05-11T07:47:48.409Z,6.05
2023-05-11T07:50:15.947Z,5.70
2023-05-11T07:52:43.907Z,5.57
2023-05-11T07:55:10.697Z,5.65
2023-05-11T07:57:37.841Z,5.40
2023-05-11T08:00:06.017Z,5.80
2023-05-11T08:02:32.898Z,5.40
2023-05-11T08:04:59.764Z,5.38
2023-05-11T08:07:26.565Z,5.80
2023-05-11T08:09:53.495Z,5.40
2023-05-11T08:12:20.262Z,5.60
2023-05-11T08:14:47.095Z,6.25
2023-05-11T08:17:13.932Z,6.07
2023-05-11T08:19:40.711Z,6.80
2023-05-11T08:22:07.545Z,5.90
2023-05-11T08:24:34.495Z,6.85
2023-05-11T08:27:01.427Z,6.82
2023-05-11T08:29:28.308Z,6.82
2023-05-11T08:31:55.325Z,7.57
2023-05-11T08:34:23.353Z,8.13
2023-05-11T08:36:50.774Z,6.80
2023-05-11T08:39:28.598Z,6.93
2023-05-11T08:42:07.144Z,7.70
2023-05-11T08:44:36.032Z,7.90
2023-05-11T08:47:21.288Z,6.97
2023-05-11T08:49:51.796Z,7.47
2023-05-11T08:52:19.294Z,7.82
2023-05-11T08:54:46.962Z,7.50
2023-05-11T08:57:14.555Z,7.45
2023-05-11T08:59:44.596Z,7.60
2023-05-11T09:02:16.539Z,7.38
2023-05-11T09:04:46.835Z,7.55
2023-05-11T09:07:17.441Z,7.72
2023-05-11T09:09:46.285Z,7.63
2023-05-11T09:12:13.658Z,7.93
2023-05-11T09:14:40.485Z,8.70
2023-05-11T09:17:07.448Z,7.88
2023-05-11T09:19:34.445Z,8.32
2023-05-11T09:22:01.390Z,8.52
2023-05-11T09:24:28.594Z,7.53
2023-05-11T09:27:21.192Z,8.20
2023-05-11T09:29:51.925Z,9.73
2023-05-11T09:32:19.105Z,8.88
2023-05-11T09:34:46.155Z,8.95
2023-05-11T09:37:19.052Z,8.50
2023-05-11T09:40:14.015Z,11.43
2023-05-11T09:42:32.824Z,8.75
2023-05-11T09:44:59.657Z,29.17
2023-05-11T09:47:27.625Z,10.10
2023-05-11T09:49:54.489Z,10.52
2023-05-11T09:52:21.454Z,8.85
2023-05-11T09:54:51.382Z,9.13
2023-05-11T09:57:29.974Z,10.18
2023-05-11T09:59:58.526Z,10.15
2023-05-11T10:02:26.676Z,11.27
2023-05-11T10:05:01.334Z,10.70
2023-05-11T10:07:33.229Z,14.50
2023-05-11T10:12:30.436Z,9.77
2023-05-11T10:15:08.631Z,10.27
2023-05-11T10:17:36.903Z,13.52
2023-05-11T10:20:05.817Z,10.15
2023-05-11T10:22:33.135Z,10.38
2023-05-11T10:25:00.658Z,10.48
2023-05-11T10:27:27.950Z,11.52
2023-05-11T10:29:54.897Z,10.98
2023-05-11T10:32:22.715Z,11.30
2023-05-11T10:34:52.340Z,17.38
2023-05-11T10:37:21.205Z,18.48
2023-05-11T10:39:52.220Z,14.48
2023-05-11T10:42:51.187Z,12.82
2023-05-11T10:45:57.805Z,15.55
2023-05-11T10:48:40.397Z,10.88
2023-05-11T10:51:25.833Z,12.18
2023-05-11T10:54:11.195Z,12.75
2023-05-11T10:57:11.635Z,13.95
2023-05-11T11:00:14.323Z,12.85
2023-05-11T11:02:42.178Z,12.80
2023-05-11T11:05:14.065Z,12.75
2023-05-11T11:08:00.727Z,13.07
2023-05-11T11:10:38.832Z,12.43
2023-05-11T11:13:08.813Z,20.13
2023-05-11T11:15:54.459Z,23.98
2023-05-11T11:18:27.181Z,18.05
2023-05-11T11:20:58.482Z,16.75
2023-05-11T11:23:41.522Z,13.55
2023-05-11T11:26:10.127Z,13.85
2023-05-11T11:28:58.402Z,13.48
2023-05-11T11:31:27.723Z,14.07
2023-05-11T11:34:00.860Z,14.43
2023-05-11T11:36:55.586Z,17.25
2023-05-11T11:39:22.966Z,14.20
2023-05-11T11:42:09.807Z,13.98
2023-05-11T11:44:37.959Z,14.88
2023-05-11T11:47:19.843Z,15.68
2023-05-11T11:49:48.901Z,20.27
2023-05-11T11:52:28.306Z,16.90
2023-05-11T11:54:57.100Z,14.95
2023-05-11T11:57:35.405Z,15.82
2023-05-11T12:00:12.824Z,14.95
2023-05-11T12:02:44.959Z,15.85
2023-05-11T12:05:14.032Z,15.68
2023-05-11T12:07:46.370Z,15.57
2023-05-11T12:10:14.680Z,15.52
2023-05-11T12:12:45.895Z,14.35
2023-05-11T12:15:29.558Z,15.18
2023-05-11T12:17:56.860Z,15.63
2023-05-11T12:20:24.306Z,14.65
2023-05-11T12:22:51.631Z,16.25
2023-05-11T12:25:19.800Z,15.23
2023-05-11T12:28:03.231Z,15.85
2023-05-11T12:30:32.330Z,15.50
2023-05-11T12:33:04.606Z,15.07
2023-05-11T12:35:33.331Z,15.82
2023-05-11T12:38:04.952Z,15.73
2023-05-11T12:40:32.198Z,14.88
2023-05-11T12:43:00.172Z,18.13
2023-05-11T12:45:28.100Z,15.25
2023-05-11T12:47:56.600Z,15.52
2023-05-11T12:50:23.429Z,17.13
2023-05-11T12:52:50.999Z,15.77
2023-05-11T12:55:31.192Z,16.25
2023-05-11T12:58:09.223Z,14.10
2023-05-11T13:00:36.604Z,13.35
2023-05-11T13:03:03.796Z,13.52
2023-05-11T13:05:31.231Z,13.57
2023-05-11T13:08:03.012Z,14.52
2023-05-11T13:12:57.371Z,12.45
2023-05-11T13:15:25.397Z,12.77
2023-05-11T13:18:02.701Z,17.40
2023-05-11T13:20:32.340Z,13.75
2023-05-11T13:23:08.327Z,14.18
2023-05-11T13:25:51.678Z,13.98
2023-05-11T13:28:20.726Z,13.65
2023-05-11T13:30:47.929Z,14.13
2023-05-11T13:33:14.905Z,20.27
2023-05-11T13:35:42.656Z,14.43
2023-05-11T13:38:10.810Z,17.45
2023-05-11T13:40:38.059Z,12.98
2023-05-11T13:43:05.385Z,13.02
2023-05-11T13:45:32.440Z,13.20
2023-05-11T13:47:59.294Z,13.20
2023-05-11T13:50:26.964Z,12.75
2023-05-11T13:52:54.318Z,12.82
2023-05-11T13:55:21.585Z,13.10
2023-05-11T13:57:48.606Z,13.15
2023-05-11T14:00:16.118Z,12.15
2023-05-11T14:02:58.565Z,13.18
2023-05-11T14:05:25.437Z,13.45
2023-05-11T14:08:12.220Z,12.20
2023-05-11T14:10:39.065Z,12.10
2023-05-11T14:13:08.786Z,11.60
2023-05-11T14:15:37.481Z,12.77
2023-05-11T14:18:05.277Z,12.38
2023-05-11T14:20:32.157Z,12.15
2023-05-11T14:22:59.606Z,12.02
2023-05-11T14:25:26.746Z,12.18
2023-05-11T14:27:55.537Z,12.55
2023-05-11T14:30:22.752Z,12.18
2023-05-11T14:32:51.144Z,12.20
2023-05-11T14:35:18.276Z,11.38
2023-05-11T14:37:45.542Z,11.07
2023-05-11T14:40:12.691Z,12.95
2023-05-11T14:42:39.534Z,11.30
2023-05-11T14:45:07.331Z,11.32
2023-05-11T14:47:34.372Z,11.13
2023-05-11T14:50:01.237Z,11.95
2023-05-11T14:52:28.063Z,13.77
2023-05-11T14:54:54.860Z,11.55
2023-05-11T14:57:22.190Z,10.48
2023-05-11T14:59:58.923Z,11.07
2023-05-11T15:02:27.328Z,11.65
2023-05-11T15:04:54.949Z,12.05
2023-05-11T15:07:21.763Z,11.25
2023-05-11T15:09:49.747Z,11.38
2023-05-11T15:12:16.531Z,11.00
2023-05-11T15:14:43.301Z,11.15
2023-05-11T15:17:10.118Z,11.43
2023-05-11T15:19:37.110Z,11.77
2023-05-11T15:22:03.998Z,10.70
2023-05-11T15:24:30.748Z,10.55
2023-05-11T15:26:58.038Z,10.57
2023-05-11T15:29:25.564Z,10.98
2023-05-11T15:31:52.500Z,10.68
2023-05-11T15:34:19.472Z,10.48
2023-05-11T15:36:48.559Z,11.25
2023-05-11T15:39:28.811Z,12.18
2023-05-11T15:41:55.586Z,11.27
2023-05-11T15:44:23.442Z,11.85
2023-05-11T15:46:50.308Z,11.63
2023-05-11T15:49:17.080Z,11.02
2023-05-11T15:51:43.832Z,11.43
2023-05-11T15:54:10.626Z,12.52
2023-05-11T15:56:37.389Z,12.38
2023-05-11T15:59:04.358Z,12.63
2023-05-11T16:01:31.934Z,12.32
2023-05-11T16:03:59.519Z,13.07
2023-05-11T16:06:27.799Z,12.20
2023-05-11T16:08:54.793Z,13.30
2023-05-11T16:11:21.777Z,12.70
2023-05-11T16:13:48.590Z,13.27
2023-05-11T16:16:15.576Z,13.30
2023-05-11T16:18:42.436Z,13.90
2023-05-11T16:21:11.987Z,14.20
2023-05-11T16:23:38.881Z,13.80
2023-05-11T16:26:05.924Z,14.55
2023-05-11T16:28:33.791Z,13.88
2023-05-11T16:31:00.758Z,14.10
2023-05-11T16:33:27.635Z,15.20
2023-05-11T16:35:54.484Z,15.25
2023-05-11T16:38:22.540Z,15.38
2023-05-11T16:40:50.134Z,15.30
2023-05-11T16:43:17.308Z,15.60
2023-05-11T16:45:44.554Z,16.40
2023-05-11T16:48:11.434Z,16.15
2023-05-11T16:50:38.505Z,16.38
2023-05-11T16:53:05.721Z,14.57
2023-05-11T16:55:32.565Z,15.43
2023-05-11T16:57:59.336Z,15.98
2023-05-11T17:00:26.594Z,15.25
2023-05-11T17:02:53.615Z,14.32
2023-05-11T17:05:21.657Z,31.58
2023-05-11T17:07:48.860Z,15.20
2023-05-11T17:10:15.701Z,14.75
2023-05-11T17:12:42.498Z,14.73
2023-05-11T17:15:10.056Z,14.55
2023-05-11T17:17:38.042Z,15.25
2023-05-11T17:20:07.732Z,15.50
2023-05-11T17:22:35.241Z,30.30
2023-05-11T17:25:05.540Z,20.00
2023-05-11T17:27:32.636Z,15.45
2023-05-11T17:29:59.362Z,14.45
2023-05-11T17:32:26.547Z,14.23
2023-05-11T17:34:53.686Z,15.15
2023-05-11T17:37:31.393Z,14.25
2023-05-11T17:40:00.952Z,14.73
2023-05-11T17:42:28.542Z,13.48
2023-05-11T17:44:56.157Z,12.38
2023-05-11T17:47:23.018Z,14.82
2023-05-11T17:49:50.575Z,15.18
2023-05-11T17:52:17.364Z,14.75
2023-05-11T17:54:44.175Z,13.23
2023-05-11T17:57:10.962Z,15.80
2023-05-11T17:59:37.770Z,13.82
2023-05-11T18:02:04.746Z,13.90
2023-05-11T18:04:31.569Z,12.77
2023-05-11T18:06:58.332Z,15.90
2023-05-11T18:09:25.128Z,12.40
2023-05-11T18:11:52.030Z,13.35
2023-05-11T18:14:18.888Z,14.60
2023-05-11T18:16:45.731Z,15.23
2023-05-11T18:19:12.631Z,12.00
2023-05-11T18:21:40.381Z,12.45
2023-05-11T18:24:09.567Z,12.45
2023-05-11T18:26:36.778Z,12.05
2023-05-11T18:29:03.564Z,13.95
2023-05-11T18:31:31.050Z,10.85
2023-05-11T18:33:57.890Z,12.60
2023-05-11T18:36:24.651Z,12.23
2023-05-11T18:38:51.708Z,14.02
2023-05-11T18:41:18.625Z,13.63
2023-05-11T18:43:45.746Z,13.25
2023-05-11T18:46:12.570Z,14.48
2023-05-11T18:48:39.459Z,13.93
2023-05-11T18:51:06.796Z,13.45
2023-05-11T18:53:33.731Z,13.00
2023-05-11T18:56:00.608Z,14.05
2023-05-11T18:58:27.424Z,14.20
2023-05-11T19:00:54.390Z,13.95
2023-05-11T19:03:22.336Z,14.40
2023-05-11T19:05:50.210Z,15.38
2023-05-11T19:08:17.169Z,14.70
2023-05-11T19:10:45.429Z,14.75
2023-05-11T19:13:14.648Z,14.80
2023-05-11T19:15:41.586Z,13.30
2023-05-11T19:18:08.886Z,13.82
2023-05-11T19:20:35.738Z,14.38
2023-05-11T19:23:04.505Z,14.50
2023-05-11T19:25:31.342Z,14.07
2023-05-11T19:27:58.196Z,15.85
2023-05-11T19:30:25.111Z,14.05
2023-05-11T19:33:02.329Z,14.70
2023-05-11T19:35:29.224Z,15.13
2023-05-11T19:37:57.125Z,14.18
2023-05-11T19:42:54.842Z,13.47
2023-05-11T19:45:21.770Z,14.02
2023-05-11T19:47:48.610Z,14.68
2023-05-11T19:50:15.545Z,13.30
2023-05-11T19:52:42.360Z,14.00
2023-05-11T19:55:09.287Z,15.02
2023-05-11T19:57:37.710Z,14.43
2023-05-11T20:00:06.250Z,13.73
2023-05-11T20:02:33.846Z,15.50
2023-05-11T20:05:00.691Z,13.30
2023-05-11T20:07:27.687Z,14.10
2023-05-11T20:09:54.928Z,13.00
2023-05-11T20:12:21.689Z,13.55
2023-05-11T20:14:48.506Z,13.02
2023-05-11T20:17:15.535Z,12.75
2023-05-11T20:19:42.307Z,13.20
2023-05-11T20:22:09.083Z,13.27
2023-05-11T20:24:35.794Z,13.15
2023-05-11T20:27:09.404Z,13.45
2023-05-11T20:29:36.626Z,12.32
2023-05-11T20:32:03.581Z,12.30
2023-05-11T20:34:30.548Z,12.63
2023-05-11T20:36:57.402Z,12.30
2023-05-11T20:39:24.247Z,12.60
2023-05-11T20:41:51.121Z,12.05
2023-05-11T20:44:18.527Z,11.57
2023-05-11T20:46:49.595Z,10.45
2023-05-11T20:49:27.557Z,11.88
2023-05-11T20:52:02.015Z,11.48
2023-05-11T20:54:31.855Z,12.18
2023-05-11T20:56:59.379Z,10.60
2023-05-11T21:01:55.901Z,10.98
2023-05-11T21:04:22.974Z,10.45
2023-05-11T21:06:53.924Z,9.43
2023-05-11T21:09:20.755Z,9.43
2023-05-11T21:11:48.935Z,9.25
2023-05-11T21:14:15.875Z,9.55
2023-05-11T21:16:42.924Z,23.80
2023-05-11T21:19:09.841Z,10.00
2023-05-11T21:21:36.799Z,10.13
2023-05-11T21:24:04.252Z,8.32
2023-05-11T21:26:31.023Z,8.00
2023-05-11T21:28:57.871Z,7.85
2023-05-11T21:31:24.723Z,12.02
2023-05-11T21:33:51.979Z,8.80
2023-05-11T21:36:19.291Z,10.50
2023-05-11T21:38:46.054Z,8.13
2023-05-11T21:41:12.836Z,6.57
2023-05-11T21:43:39.634Z,7.63
2023-05-11T21:46:06.708Z,6.25
2023-05-11T21:48:33.652Z,6.28
2023-05-11T21:51:00.419Z,6.57
2023-05-11T21:53:27.277Z,6.05
2023-05-11T21:55:54.053Z,6.55
2023-05-11T21:58:21.063Z,6.07
2023-05-11T22:00:48.038Z,5.30
2023-05-11T22:03:14.903Z,4.20
2023-05-11T22:05:42.125Z,4.47
2023-05-11T22:08:15.083Z,4.30
2023-05-11T22:10:44.002Z,4.40
2023-05-11T22:13:10.863Z,4.43
2023-05-11T22:15:38.257Z,3.92
2023-05-11T22:18:05.210Z,4.00
2023-05-11T22:20:32.122Z,5.00
2023-05-11T22:22:59.563Z,4.45
2023-05-11T22:25:26.611Z,4.38
2023-05-11T22:27:53.563Z,4.13
2023-05-11T22:30:20.836Z,4.60
2023-05-11T22:32:47.923Z,4.05
2023-05-11T22:35:14.753Z,4.03
2023-05-11T22:37:41.557Z,4.03
2023-05-11T22:40:09.608Z,4.65
2023-05-11T22:42:36.392Z,3.95
2023-05-11T22:45:03.366Z,4.07
2023-05-11T22:47:30.234Z,3.92
2023-05-11T22:49:57.198Z,4.00
2023-05-11T22:52:23.941Z,3.67
2023-05-11T22:54:55.202Z,3.58
2023-05-11T22:57:24.132Z,3.65
2023-05-11T22:59:51.110Z,3.33
2023-05-11T23:02:17.979Z,3.45
2023-05-11T23:04:50.353Z,3.00
2023-05-11T23:07:17.275Z,3.55
2023-05-11T23:09:44.267Z,3.42
2023-05-11T23:12:11.109Z,3.22
2023-05-11T23:14:37.874Z,2.83
2023-05-11T23:17:04.775Z,3.00
2023-05-11T23:19:31.887Z,2.97
2023-05-11T23:21:58.865Z,2.50
2023-05-11T23:24:25.618Z,2.90
2023-05-11T23:26:52.443Z,2.33
2023-05-11T23:29:19.258Z,2.10
2023-05-11T23:31:46.526Z,2.60
2023-05-11T23:34:13.347Z,2.40
2023-05-11T23:36:40.359Z,2.38
2023-05-11T23:39:07.191Z,2.63
2023-05-11T23:41:34.018Z,1.95
2023-05-11T23:44:01.393Z,2.28
2023-05-11T23:46:28.984Z,2.40
2023-05-11T23:48:56.025Z,2.25
2023-05-11T23:51:22.887Z,2.08
2023-05-11T23:53:49.713Z,2.85
2023-05-11T23:56:16.486Z,2.40
2023-05-11T23:58:45.767Z,1.92
